Página principal
METAR-TAF:

METAR-TAF

Aeroportos :

Pohnpei, Micronésia

latitude: 06-59N, longitude: 158-12E, altura: 2 m

Observação actual do tempo

O boletim foi feito há 12 horas e 46 minutos, às 02:50 UTC
Vento 10 kt de nordeste
Temperatura 29°C
Humidade 79%
Pressão 1008 hPa
Visibilidade: 24.1 km
Nuvens fragmentadasa uma altura de 1800 ft, Cumulus congestus.
Encobertoa uma altura de 30000 ft

METAR: PTPN 170250Z 04010KT 15SM BKN018TCU OVC300 29/25 A2978 RMK TCU S-W LAST

Hora: 02:36 (15:36 UTC)

Previsão

O boletim foi feito há 16 horas e 6 minutos, às 23:30 UTC
Previsão válida de 17 às 00 UTC a 17 às 24 UTC
Vento 14 kt de nor-nordeste
Visibilidade: 10 km
Nuvens dispersasa uma altura de 1800 ft
Nuvens dispersasa uma altura de 10000 ft
aguaceiros nas vizinhanças
Temporariamente
de 17 às 00 UTC a 17 às 03 UTC
Nuvens fragmentadasa uma altura de 1600 ft
aguaceiros fracos de chuva

TAF: PTPN 162330Z 1700/1724 03014KT P6SM VCSH SCT018 SCT100 TEMPO 1700/1703 -SHRA BKN016

Observações e previsões do tempo de mais de 4000 aeroportos (mensagens METAR e TAF).

As estações disponíveis são os pontos amarelos e vermelhos sobre o mapa.

Mova o rato sobre o mapa para ver o nome da estação.

Depois clique no ponto para visualizar as observações e previsões meteorológicas.

Para alterar o mapa : clique nos botões verdes com uma cruz preta para aumentar o zoom; no botão verde com uma pitada de zoom; ou nas setas verdes para mapas adjacentes.


METAR-TAF: